createdAt,value
2023-08-11T04:01:41.414Z,1.73
2023-08-11T04:04:08.214Z,1.55
2023-08-11T04:06:35.084Z,1.73
2023-08-11T04:09:02.622Z,2.10
2023-08-11T04:11:31.036Z,2.17
2023-08-11T04:13:57.934Z,2.20
2023-08-11T04:16:24.685Z,1.73
2023-08-11T04:18:51.456Z,1.88
2023-08-11T04:21:18.248Z,2.50
2023-08-11T04:23:45.002Z,2.13
2023-08-11T04:26:11.733Z,2.65
2023-08-11T04:28:39.848Z,2.38
2023-08-11T04:31:10.811Z,1.73
2023-08-11T04:33:37.782Z,2.53
2023-08-11T04:36:04.678Z,1.88
2023-08-11T04:38:34.230Z,2.22
2023-08-11T04:41:02.449Z,2.38
2023-08-11T04:43:30.812Z,2.63
2023-08-11T04:45:58.148Z,2.13
2023-08-11T04:48:25.354Z,3.03
2023-08-11T04:50:53.380Z,2.17
2023-08-11T04:53:22.140Z,2.00
2023-08-11T04:55:49.204Z,2.92
2023-08-11T04:58:16.034Z,2.58
2023-08-11T05:00:44.163Z,1.63
2023-08-11T05:03:11.255Z,2.33
2023-08-11T05:05:38.127Z,1.40
2023-08-11T05:08:05.286Z,1.67
2023-08-11T05:10:32.061Z,1.55
2023-08-11T05:13:00.098Z,1.88
2023-08-11T05:15:26.979Z,1.35
2023-08-11T05:17:53.759Z,1.42
2023-08-11T05:20:20.626Z,1.60
2023-08-11T05:22:48.791Z,1.48
2023-08-11T05:25:15.618Z,1.48
2023-08-11T05:27:42.346Z,1.10
2023-08-11T05:30:09.668Z,1.40
2023-08-11T05:32:36.600Z,1.65
2023-08-11T05:35:03.847Z,1.13
2023-08-11T05:37:30.701Z,1.17
2023-08-11T05:39:57.533Z,1.25
2023-08-11T05:42:25.030Z,1.00
2023-08-11T05:44:51.960Z,0.73
2023-08-11T05:47:19.036Z,0.82
2023-08-11T05:49:45.861Z,0.90
2023-08-11T05:52:12.628Z,1.02
2023-08-11T05:54:39.341Z,1.35
2023-08-11T05:57:06.461Z,1.50
2023-08-11T05:59:33.528Z,1.90
2023-08-11T06:02:00.278Z,1.70
2023-08-11T06:04:27.300Z,2.45
2023-08-11T06:06:54.784Z,1.50
2023-08-11T06:09:22.444Z,2.05
2023-08-11T06:11:49.282Z,2.15
2023-08-11T06:14:16.092Z,3.38
2023-08-11T06:16:42.878Z,2.47
2023-08-11T06:19:09.601Z,2.03
2023-08-11T06:21:36.417Z,2.00
2023-08-11T06:24:04.260Z,1.90
2023-08-11T06:26:31.119Z,2.15
2023-08-11T06:28:57.836Z,1.40
2023-08-11T06:31:24.612Z,1.85
2023-08-11T06:33:51.852Z,1.40
2023-08-11T06:36:19.082Z,1.65
2023-08-11T06:38:45.903Z,1.73
2023-08-11T06:41:13.007Z,2.13
2023-08-11T06:43:40.481Z,1.80
2023-08-11T06:46:07.624Z,1.55
2023-08-11T06:48:34.857Z,1.80
2023-08-11T06:51:01.733Z,1.60
2023-08-11T06:53:28.473Z,1.23
2023-08-11T06:55:55.322Z,1.65
2023-08-11T06:58:24.822Z,1.48
2023-08-11T07:00:52.951Z,1.50
2023-08-11T07:03:22.535Z,1.23
2023-08-11T07:05:52.763Z,1.50
2023-08-11T07:08:20.563Z,1.25
2023-08-11T07:10:47.477Z,1.05
2023-08-11T07:13:14.240Z,1.00
2023-08-11T07:15:44.010Z,1.77
2023-08-11T07:18:11.908Z,1.50
2023-08-11T07:20:45.470Z,2.28
2023-08-11T07:23:12.816Z,1.88
2023-08-11T07:25:39.596Z,0.73
2023-08-11T07:28:06.480Z,0.90
2023-08-11T07:30:33.266Z,0.70
2023-08-11T07:33:01.882Z,1.38
2023-08-11T07:35:28.906Z,2.25
2023-08-11T07:37:55.859Z,1.73
2023-08-11T07:40:23.843Z,0.65
2023-08-11T07:42:50.570Z,1.48
2023-08-11T07:45:17.287Z,1.40
2023-08-11T07:47:44.359Z,1.20
2023-08-11T07:50:11.411Z,1.17
2023-08-11T07:52:38.237Z,1.13
2023-08-11T07:55:05.706Z,1.17
2023-08-11T07:57:32.554Z,1.58
2023-08-11T07:59:59.599Z,1.05
2023-08-11T08:02:27.590Z,1.10
2023-08-11T08:05:00.033Z,1.17
2023-08-11T08:07:36.894Z,1.00
2023-08-11T08:10:09.400Z,2.08
2023-08-11T08:12:40.060Z,1.38
2023-08-11T08:15:08.029Z,2.13
2023-08-11T08:17:38.247Z,1.48
2023-08-11T08:20:08.086Z,1.55
2023-08-11T08:22:34.987Z,1.80
2023-08-11T08:25:01.737Z,1.88
2023-08-11T08:27:28.505Z,1.27
2023-08-11T08:29:55.711Z,2.05
2023-08-11T08:32:22.655Z,2.20
2023-08-11T08:34:49.933Z,1.60
2023-08-11T08:37:20.633Z,1.63
2023-08-11T08:39:50.284Z,1.75
2023-08-11T08:42:17.953Z,2.00
2023-08-11T08:44:45.658Z,2.25
2023-08-11T08:47:14.126Z,1.60
2023-08-11T08:49:42.856Z,1.88
2023-08-11T08:52:09.676Z,2.53
2023-08-11T08:54:37.217Z,1.90
2023-08-11T08:57:08.250Z,1.90
2023-08-11T08:59:35.388Z,2.10
2023-08-11T09:02:04.873Z,1.98
2023-08-11T09:04:33.818Z,2.08
2023-08-11T09:07:01.313Z,2.63
2023-08-11T09:09:28.671Z,1.90
2023-08-11T09:11:55.913Z,2.35
2023-08-11T09:14:23.835Z,2.17
2023-08-11T09:16:53.484Z,2.38
2023-08-11T09:19:21.353Z,2.60
2023-08-11T09:21:48.601Z,1.67
2023-08-11T09:24:16.011Z,1.75
2023-08-11T09:26:50.415Z,2.30
2023-08-11T09:29:21.023Z,2.13
2023-08-11T09:31:52.124Z,1.90
2023-08-11T09:34:19.881Z,2.03
2023-08-11T09:36:49.095Z,2.70
2023-08-11T09:39:16.249Z,2.17
2023-08-11T09:41:49.575Z,2.75
2023-08-11T09:44:20.564Z,2.45
2023-08-11T09:46:50.535Z,2.78
2023-08-11T09:49:18.052Z,3.25
2023-08-11T09:51:46.920Z,2.90
2023-08-11T09:54:15.320Z,2.53
2023-08-11T09:56:44.447Z,3.40
2023-08-11T09:59:13.918Z,2.22
2023-08-11T10:01:43.400Z,2.85
2023-08-11T10:04:16.610Z,3.50
2023-08-11T10:06:47.749Z,3.78
2023-08-11T10:09:15.739Z,4.18
2023-08-11T10:11:45.102Z,3.50
2023-08-11T10:14:15.997Z,4.25
2023-08-11T10:16:42.909Z,3.03
2023-08-11T10:19:10.104Z,2.85
2023-08-11T10:21:37.785Z,3.28
2023-08-11T10:24:05.665Z,3.30
2023-08-11T10:26:32.901Z,3.28
2023-08-11T10:29:00.478Z,3.22
2023-08-11T10:31:32.730Z,2.58
2023-08-11T10:36:33.350Z,2.35
2023-08-11T10:39:07.376Z,3.40
2023-08-11T10:41:34.849Z,2.53
2023-08-11T10:44:01.868Z,2.83
2023-08-11T10:46:32.352Z,2.40
2023-08-11T10:49:19.501Z,2.40
2023-08-11T10:51:49.964Z,2.63
2023-08-11T10:54:26.230Z,2.70
2023-08-11T10:56:54.172Z,2.17
2023-08-11T10:59:24.732Z,2.40
2023-08-11T11:01:53.527Z,2.05
2023-08-11T11:04:22.584Z,1.90
2023-08-11T11:06:52.044Z,1.88
2023-08-11T11:09:22.434Z,3.40
2023-08-11T11:11:52.365Z,2.42
2023-08-11T11:14:19.777Z,1.90
2023-08-11T11:16:47.579Z,2.42
2023-08-11T11:19:14.648Z,2.30
2023-08-11T11:21:41.682Z,1.90
2023-08-11T11:24:09.731Z,2.17
2023-08-11T11:26:37.047Z,1.65
2023-08-11T11:29:06.315Z,1.52
2023-08-11T11:31:35.889Z,1.83
2023-08-11T11:34:04.003Z,1.88
2023-08-11T11:36:31.760Z,2.08
2023-08-11T11:38:58.541Z,1.85
2023-08-11T11:41:25.313Z,1.88
2023-08-11T11:43:52.596Z,1.80
2023-08-11T11:46:21.182Z,1.77
2023-08-11T11:48:52.524Z,1.80
2023-08-11T11:51:21.964Z,1.90
2023-08-11T11:53:52.250Z,1.58
2023-08-11T11:56:19.913Z,1.48
2023-08-11T11:58:47.270Z,1.80
2023-08-11T12:01:18.015Z,1.50
2023-08-11T12:03:46.341Z,1.83
2023-08-11T12:06:14.283Z,1.50
2023-08-11T12:08:42.881Z,1.65
2023-08-11T12:11:12.281Z,1.50
2023-08-11T12:13:47.357Z,1.30
2023-08-11T12:16:14.704Z,1.33
2023-08-11T12:18:42.299Z,1.60
2023-08-11T12:21:12.148Z,1.60
2023-08-11T12:23:39.026Z,1.40
2023-08-11T12:26:05.849Z,1.83
2023-08-11T12:28:32.884Z,2.00
2023-08-11T12:30:59.825Z,1.95
2023-08-11T12:33:26.843Z,1.80
2023-08-11T12:35:53.692Z,1.55
2023-08-11T12:38:22.030Z,1.38
2023-08-11T12:40:49.656Z,1.60
2023-08-11T12:43:17.330Z,1.30
2023-08-11T12:45:48.140Z,1.58
2023-08-11T12:48:15.794Z,1.60
2023-08-11T12:50:42.879Z,1.52
2023-08-11T12:53:10.575Z,1.77
2023-08-11T12:55:38.476Z,1.90
2023-08-11T12:58:05.810Z,1.45
2023-08-11T13:00:34.063Z,2.20
2023-08-11T13:03:00.968Z,1.60
2023-08-11T13:05:28.191Z,1.98
2023-08-11T13:07:55.038Z,1.40
2023-08-11T13:10:22.377Z,1.55
2023-08-11T13:12:50.277Z,1.85
2023-08-11T13:15:17.531Z,1.13
2023-08-11T13:17:48.520Z,1.27
2023-08-11T13:20:16.355Z,1.67
2023-08-11T13:22:43.574Z,1.42
2023-08-11T13:25:11.074Z,1.40
2023-08-11T13:27:43.186Z,1.20
2023-08-11T13:30:10.301Z,1.52
2023-08-11T13:32:37.118Z,1.40
2023-08-11T13:35:06.227Z,1.30
2023-08-11T13:37:33.215Z,1.42
2023-08-11T13:40:01.340Z,1.73
2023-08-11T13:42:28.406Z,1.38
2023-08-11T13:44:55.235Z,1.73
2023-08-11T13:47:22.021Z,1.50
2023-08-11T13:49:48.855Z,2.15
2023-08-11T13:52:15.601Z,2.30
2023-08-11T13:54:57.899Z,2.38
2023-08-11T13:57:25.041Z,2.70
2023-08-11T13:59:51.973Z,3.80
2023-08-11T14:02:18.750Z,2.90
2023-08-11T14:04:45.635Z,2.10
2023-08-11T14:07:27.901Z,2.20
2023-08-11T14:09:56.817Z,2.50
2023-08-11T14:12:23.587Z,2.97
2023-08-11T14:14:50.313Z,3.40
2023-08-11T14:17:17.179Z,3.00
2023-08-11T14:19:44.062Z,2.45
2023-08-11T14:22:10.919Z,2.10
2023-08-11T14:24:37.959Z,2.70
2023-08-11T14:27:06.262Z,2.50
2023-08-11T14:29:33.044Z,1.63
2023-08-11T14:32:13.781Z,1.67
2023-08-11T14:34:45.539Z,1.70
2023-08-11T14:37:15.148Z,1.95
2023-08-11T14:39:43.677Z,1.50
2023-08-11T14:42:10.937Z,1.38
2023-08-11T14:44:37.907Z,1.73
2023-08-11T14:47:06.280Z,1.50
2023-08-11T14:49:33.100Z,1.10
2023-08-11T14:51:59.877Z,1.50
2023-08-11T14:54:28.050Z,0.90
2023-08-11T14:56:57.673Z,0.90
2023-08-11T14:59:24.582Z,1.13
2023-08-11T15:01:52.345Z,1.27
2023-08-11T15:04:19.228Z,0.82
2023-08-11T15:06:46.118Z,1.17
2023-08-11T15:09:13.053Z,0.82
2023-08-11T15:11:39.790Z,0.75
2023-08-11T15:14:06.575Z,0.80
2023-08-11T15:16:33.442Z,0.98
2023-08-11T15:19:00.314Z,0.80
2023-08-11T15:21:27.110Z,1.10
2023-08-11T15:23:53.947Z,0.95
2023-08-11T15:26:22.713Z,0.80
2023-08-11T15:28:50.858Z,0.60
2023-08-11T15:31:18.510Z,0.80
2023-08-11T15:33:45.426Z,0.85
2023-08-11T15:36:12.141Z,1.08
2023-08-11T15:38:38.863Z,1.13
2023-08-11T15:41:05.908Z,1.08
2023-08-11T15:43:32.944Z,1.15
2023-08-11T15:45:59.874Z,1.25
2023-08-11T15:48:28.590Z,1.20
2023-08-11T15:50:56.533Z,1.15
2023-08-11T15:53:23.537Z,1.00
2023-08-11T15:55:50.258Z,1.00
2023-08-11T15:58:17.027Z,0.88
2023-08-11T16:00:43.795Z,1.58
2023-08-11T16:03:10.960Z,0.98
2023-08-11T16:05:37.877Z,1.13
2023-08-11T16:08:04.958Z,1.27
2023-08-11T16:10:34.434Z,1.23
2023-08-11T16:13:01.310Z,1.48
2023-08-11T16:15:28.862Z,1.48
2023-08-11T16:17:56.612Z,1.40
2023-08-11T16:20:23.699Z,1.10
2023-08-11T16:22:56.982Z,0.98
2023-08-11T16:25:23.756Z,1.42
2023-08-11T16:27:50.470Z,1.88
2023-08-11T16:30:17.318Z,1.33
2023-08-11T16:32:44.114Z,1.45
2023-08-11T16:35:11.035Z,1.35
2023-08-11T16:37:37.893Z,1.20
2023-08-11T16:40:06.034Z,1.10
2023-08-11T16:42:32.746Z,1.23
2023-08-11T16:44:59.493Z,1.60
2023-08-11T16:47:28.304Z,1.02
2023-08-11T16:49:55.314Z,1.38
2023-08-11T16:52:22.535Z,1.08
2023-08-11T16:54:49.321Z,1.20
2023-08-11T16:57:16.069Z,0.90
2023-08-11T16:59:42.759Z,1.20
2023-08-11T17:02:09.786Z,1.23
2023-08-11T17:04:36.912Z,1.55
2023-08-11T17:07:04.034Z,1.50
2023-08-11T17:09:30.796Z,1.08
2023-08-11T17:11:57.694Z,1.20
2023-08-11T17:14:24.592Z,1.00
2023-08-11T17:16:51.426Z,1.25
2023-08-11T17:19:18.146Z,1.20
2023-08-11T17:21:45.199Z,1.42
2023-08-11T17:24:12.086Z,1.45
2023-08-11T17:26:39.807Z,1.60
2023-08-11T17:29:07.284Z,2.42
2023-08-11T17:31:34.247Z,1.52
2023-08-11T17:34:01.111Z,1.42
2023-08-11T17:36:28.960Z,1.02
2023-08-11T17:38:57.804Z,1.58
2023-08-11T17:41:25.554Z,2.83
2023-08-11T17:43:52.703Z,1.45
2023-08-11T17:46:20.119Z,1.52
2023-08-11T17:48:46.932Z,1.15
2023-08-11T17:51:14.063Z,1.25
2023-08-11T17:53:41.610Z,1.35
2023-08-11T17:56:08.472Z,3.55
2023-08-11T17:58:35.239Z,2.58
2023-08-11T18:01:01.994Z,2.25
2023-08-11T18:03:28.876Z,1.70
2023-08-11T18:05:55.710Z,1.77
2023-08-11T18:08:22.538Z,1.30
2023-08-11T18:10:49.439Z,2.05
2023-08-11T18:13:17.260Z,0.95
2023-08-11T18:15:44.210Z,1.50
2023-08-11T18:18:11.030Z,1.50
2023-08-11T18:20:37.825Z,1.20
2023-08-11T18:23:04.823Z,1.17
2023-08-11T18:25:31.677Z,1.52
2023-08-11T18:27:58.452Z,1.40
2023-08-11T18:30:25.245Z,1.52
2023-08-11T18:32:52.023Z,1.50
2023-08-11T18:35:19.159Z,1.85
2023-08-11T18:37:45.912Z,1.67
2023-08-11T18:40:12.803Z,1.67
2023-08-11T18:42:39.604Z,1.90
2023-08-11T18:45:07.171Z,1.88
2023-08-11T18:47:35.115Z,1.63
2023-08-11T18:50:01.921Z,1.50
2023-08-11T18:52:28.810Z,2.10
2023-08-11T18:54:55.529Z,1.02
2023-08-11T18:57:22.284Z,1.38
2023-08-11T18:59:49.953Z,1.50
2023-08-11T19:02:17.405Z,1.05
2023-08-11T19:04:44.308Z,1.50
2023-08-11T19:07:13.427Z,1.70
2023-08-11T19:09:40.279Z,1.60
2023-08-11T19:12:07.332Z,1.55
2023-08-11T19:14:34.050Z,1.35
2023-08-11T19:17:00.798Z,1.25
2023-08-11T19:19:27.529Z,1.73
2023-08-11T19:21:55.773Z,1.50
2023-08-11T19:24:24.991Z,1.90
2023-08-11T19:26:51.859Z,1.48
2023-08-11T19:29:19.404Z,1.58
2023-08-11T19:31:46.327Z,1.55
2023-08-11T19:34:13.271Z,1.85
2023-08-11T19:36:44.285Z,1.40
2023-08-11T19:39:11.143Z,1.77
2023-08-11T19:41:37.894Z,1.02
2023-08-11T19:44:04.848Z,1.80
2023-08-11T19:46:31.806Z,1.70
2023-08-11T19:48:58.752Z,1.92
2023-08-11T19:51:25.584Z,3.97
2023-08-11T19:53:52.333Z,1.98
2023-08-11T19:56:19.128Z,1.98
2023-08-11T19:58:45.954Z,1.88
2023-08-11T20:01:13.668Z,3.05
2023-08-11T20:03:40.597Z,1.90
2023-08-11T20:06:07.807Z,2.20
2023-08-11T20:08:37.104Z,2.58
2023-08-11T20:11:04.242Z,2.10
2023-08-11T20:13:31.056Z,3.97
2023-08-11T20:16:01.881Z,1.75
2023-08-11T20:18:28.656Z,1.75
2023-08-11T20:20:55.631Z,2.92
2023-08-11T20:23:22.519Z,2.15
2023-08-11T20:25:49.260Z,1.88
2023-08-11T20:28:16.037Z,1.30
2023-08-11T20:30:44.035Z,1.35
2023-08-11T20:33:11.486Z,1.55
2023-08-11T20:35:38.340Z,1.50
2023-08-11T20:38:05.139Z,1.52
2023-08-11T20:40:33.653Z,1.27
2023-08-11T20:43:00.640Z,1.33
2023-08-11T20:45:30.941Z,1.45
2023-08-11T20:48:01.374Z,1.27
2023-08-11T20:50:28.545Z,1.38
2023-08-11T20:52:55.401Z,1.35
2023-08-11T20:55:22.161Z,2.05
2023-08-11T20:57:49.752Z,1.50
2023-08-11T21:00:16.915Z,1.08
2023-08-11T21:02:43.656Z,1.55
2023-08-11T21:05:11.384Z,1.60
2023-08-11T21:07:38.164Z,1.13
2023-08-11T21:10:07.248Z,1.63
2023-08-11T21:12:34.665Z,2.10
2023-08-11T21:15:01.498Z,1.58
2023-08-11T21:17:28.384Z,1.80
2023-08-11T21:19:55.279Z,1.63
2023-08-11T21:22:22.106Z,1.35
2023-08-11T21:24:48.830Z,1.33
2023-08-11T21:27:17.659Z,1.48
2023-08-11T21:29:44.526Z,2.00
2023-08-11T21:32:11.268Z,2.45
2023-08-11T21:34:38.067Z,1.00
2023-08-11T21:37:05.020Z,1.20
2023-08-11T21:39:33.429Z,1.10
2023-08-11T21:42:00.176Z,1.92
2023-08-11T21:44:26.902Z,1.70
2023-08-11T21:46:53.650Z,1.52
2023-08-11T21:49:20.730Z,1.73
2023-08-11T21:51:47.438Z,1.85
2023-08-11T21:54:14.150Z,1.30
2023-08-11T21:56:40.910Z,1.42
2023-08-11T21:59:07.712Z,1.48
2023-08-11T22:01:34.528Z,1.70
2023-08-11T22:04:01.281Z,1.77
2023-08-11T22:06:28.793Z,1.73
2023-08-11T22:08:55.537Z,1.98
2023-08-11T22:11:35.992Z,1.73
2023-08-11T22:14:04.576Z,1.52
2023-08-11T22:16:32.297Z,1.63
2023-08-11T22:18:59.421Z,2.03
2023-08-11T22:21:26.461Z,1.85
2023-08-11T22:23:53.193Z,1.52
2023-08-11T22:26:20.365Z,1.60
2023-08-11T22:28:47.144Z,2.05
2023-08-11T22:31:13.927Z,1.77
2023-08-11T22:33:40.675Z,2.30
2023-08-11T22:36:07.440Z,2.17
2023-08-11T22:38:34.543Z,1.50
2023-08-11T22:41:01.279Z,2.30
2023-08-11T22:43:28.325Z,1.63
2023-08-11T22:45:55.168Z,1.60
2023-08-11T22:48:22.067Z,2.42
2023-08-11T22:50:48.827Z,2.10
2023-08-11T22:53:16.032Z,1.02
2023-08-11T22:55:42.768Z,2.13
2023-08-11T22:58:09.477Z,1.90
2023-08-11T23:00:36.212Z,3.03
2023-08-11T23:03:04.449Z,2.58
2023-08-11T23:05:31.246Z,1.85
2023-08-11T23:07:58.012Z,1.50
2023-08-11T23:10:24.752Z,2.15
2023-08-11T23:12:51.464Z,1.50
2023-08-11T23:15:19.074Z,2.08
2023-08-11T23:17:46.007Z,2.20
2023-08-11T23:20:14.644Z,2.22
2023-08-11T23:22:41.491Z,2.13
2023-08-11T23:25:08.624Z,1.73
2023-08-11T23:27:35.322Z,1.55
2023-08-11T23:30:03.784Z,1.77
2023-08-11T23:32:33.225Z,2.30
2023-08-11T23:35:00.662Z,2.28
2023-08-11T23:37:30.187Z,1.83
2023-08-11T23:39:57.892Z,1.60
2023-08-11T23:42:25.643Z,1.92
2023-08-11T23:44:52.421Z,2.53
2023-08-11T23:47:19.230Z,1.80
2023-08-11T23:49:46.074Z,1.95
2023-08-11T23:52:12.853Z,2.03
2023-08-11T23:54:39.962Z,1.70
2023-08-11T23:57:06.811Z,1.58
2023-08-11T23:59:34.313Z,2.20
